createdAt,value
2023-04-15T00:00:46.784Z,93.81
2023-04-15T00:03:32.378Z,93.81
2023-04-15T00:06:17.915Z,94.05
2023-04-15T00:09:03.446Z,94.39
2023-04-15T00:11:50.111Z,94.78
2023-04-15T00:14:35.339Z,95.20
2023-04-15T00:17:20.601Z,95.44
2023-04-15T00:20:06.493Z,95.75
2023-04-15T00:22:51.695Z,95.80
2023-04-15T00:25:37.036Z,96.15
2023-04-15T00:28:21.938Z,96.87
2023-04-15T00:31:06.845Z,97.20
2023-04-15T00:33:52.163Z,96.72
2023-04-15T00:36:37.512Z,96.78
2023-04-15T00:39:23.029Z,95.57
2023-04-15T00:42:08.723Z,94.83
2023-04-15T00:44:53.863Z,94.86
2023-04-15T00:47:42.654Z,95.35
2023-04-15T00:50:27.697Z,95.61
2023-04-15T00:53:12.667Z,96.00
2023-04-15T00:55:57.971Z,96.81
2023-04-15T00:58:42.911Z,97.24
2023-04-15T01:01:28.283Z,96.38
2023-04-15T01:04:13.494Z,96.07
2023-04-15T01:06:58.678Z,96.89
2023-04-15T01:09:44.507Z,97.30
2023-04-15T01:12:31.969Z,97.79
2023-04-15T01:15:17.112Z,98.11
2023-04-15T01:18:02.912Z,98.83
2023-04-15T01:20:48.086Z,100.00
2023-04-15T01:23:35.784Z,100.00
2023-04-15T01:26:21.738Z,100.00
2023-04-15T01:29:06.741Z,100.00
2023-04-15T01:31:53.708Z,100.00
2023-04-15T01:34:38.707Z,100.00
2023-04-15T01:37:24.576Z,100.00
2023-04-15T01:40:10.117Z,100.00
2023-04-15T01:42:55.316Z,100.00
2023-04-15T01:45:40.823Z,100.00
2023-04-15T01:48:25.700Z,100.00
2023-04-15T01:51:11.183Z,100.00
2023-04-15T01:53:56.594Z,100.00
2023-04-15T01:56:42.052Z,100.00
2023-04-15T01:59:27.509Z,100.00
2023-04-15T02:02:12.365Z,100.00
2023-04-15T02:04:57.755Z,100.00
2023-04-15T02:07:43.105Z,100.00
2023-04-15T02:10:28.544Z,100.00
2023-04-15T02:13:13.914Z,100.00
2023-04-15T02:15:59.031Z,100.00
2023-04-15T02:18:45.366Z,100.00
2023-04-15T02:21:30.650Z,100.00
2023-04-15T02:24:15.755Z,100.00
2023-04-15T02:27:00.619Z,100.00
2023-04-15T02:29:45.999Z,100.00
2023-04-15T02:32:31.328Z,100.00
2023-04-15T02:35:16.782Z,100.00
2023-04-15T02:38:01.782Z,100.00
2023-04-15T02:40:47.203Z,100.00
2023-04-15T02:43:32.206Z,100.00
2023-04-15T02:46:17.661Z,100.00
2023-04-15T02:49:03.104Z,100.00
2023-04-15T02:51:48.483Z,100.00
2023-04-15T02:54:33.573Z,100.00
2023-04-15T02:57:18.498Z,100.00
2023-04-15T03:00:04.155Z,100.00
2023-04-15T03:02:49.453Z,100.00
2023-04-15T03:05:34.519Z,100.00
2023-04-15T03:08:20.113Z,100.00
2023-04-15T03:11:05.734Z,100.00
2023-04-15T03:13:50.810Z,100.00
2023-04-15T03:16:36.294Z,100.00
2023-04-15T03:19:21.790Z,100.00
2023-04-15T03:22:07.257Z,100.00
2023-04-15T03:24:52.212Z,100.00
2023-04-15T03:27:38.432Z,100.00
2023-04-15T03:30:23.989Z,100.00
2023-04-15T03:33:09.186Z,100.00
2023-04-15T03:35:54.713Z,100.00
2023-04-15T03:38:39.664Z,100.00
2023-04-15T03:41:25.127Z,100.00
2023-04-15T03:44:10.656Z,100.00
2023-04-15T03:46:56.176Z,100.00
2023-04-15T03:49:41.192Z,100.00
2023-04-15T03:52:26.762Z,100.00
2023-04-15T03:55:11.809Z,100.00
2023-04-15T03:57:56.910Z,100.00
2023-04-15T04:00:42.309Z,100.00
2023-04-15T04:03:27.777Z,100.00
2023-04-15T04:06:13.631Z,100.00
2023-04-15T04:08:58.718Z,100.00
2023-04-15T04:11:43.996Z,100.00
2023-04-15T04:14:29.313Z,100.00
2023-04-15T04:17:14.784Z,100.00
2023-04-15T04:20:00.201Z,100.00
2023-04-15T04:22:45.474Z,100.00
2023-04-15T04:25:30.315Z,100.00
2023-04-15T04:28:15.209Z,100.00
2023-04-15T04:31:00.657Z,100.00
2023-04-15T04:33:45.670Z,100.00
2023-04-15T04:36:30.528Z,100.00
2023-04-15T04:39:16.009Z,100.00
2023-04-15T04:42:01.446Z,100.00
2023-04-15T04:44:46.880Z,100.00
2023-04-15T04:47:31.943Z,100.00
2023-04-15T04:50:17.377Z,100.00
2023-04-15T04:53:02.662Z,100.00
2023-04-15T04:55:47.586Z,100.00
2023-04-15T04:58:32.367Z,100.00
2023-04-15T05:01:17.359Z,100.00
2023-04-15T05:04:02.620Z,100.00
2023-04-15T05:06:48.025Z,100.00
2023-04-15T05:09:33.108Z,100.00
2023-04-15T05:12:18.421Z,100.00
2023-04-15T05:15:04.345Z,100.00
2023-04-15T05:17:49.511Z,100.00
2023-04-15T05:20:34.714Z,100.00
2023-04-15T05:23:19.920Z,100.00
2023-04-15T05:26:05.388Z,100.00
2023-04-15T05:28:50.676Z,100.00
2023-04-15T05:31:36.641Z,100.00
2023-04-15T05:34:21.829Z,100.00
2023-04-15T05:37:07.121Z,100.00
2023-04-15T05:39:52.066Z,100.00
2023-04-15T05:42:37.645Z,100.00
2023-04-15T05:45:22.723Z,100.00
2023-04-15T05:48:07.934Z,100.00
2023-04-15T05:50:52.886Z,100.00
2023-04-15T05:53:38.084Z,100.00
2023-04-15T05:56:22.908Z,100.00
2023-04-15T05:59:08.365Z,100.00
2023-04-15T06:01:53.909Z,100.00
2023-04-15T06:04:39.213Z,100.00
2023-04-15T06:07:24.707Z,100.00
2023-04-15T06:10:10.147Z,100.00
2023-04-15T06:12:55.493Z,100.00
2023-04-15T06:15:40.243Z,100.00
2023-04-15T06:18:25.643Z,100.00
2023-04-15T06:21:10.610Z,100.00
2023-04-15T06:23:55.920Z,100.00
2023-04-15T06:26:41.346Z,100.00
2023-04-15T06:29:26.237Z,100.00
2023-04-15T06:32:11.677Z,100.00
2023-04-15T06:34:57.024Z,100.00
2023-04-15T06:37:42.333Z,100.00
2023-04-15T06:40:27.468Z,100.00
2023-04-15T06:43:12.694Z,100.00
2023-04-15T06:45:57.685Z,100.00
2023-04-15T06:48:43.014Z,100.00
2023-04-15T06:51:27.864Z,100.00
2023-04-15T06:54:13.323Z,100.00
2023-04-15T06:56:58.725Z,100.00
2023-04-15T06:59:43.741Z,100.00
2023-04-15T07:02:29.225Z,100.00
2023-04-15T07:05:14.581Z,100.00
2023-04-15T07:07:59.480Z,100.00
2023-04-15T07:10:44.337Z,100.00
2023-04-15T07:13:32.190Z,100.00
2023-04-15T07:16:17.648Z,100.00
2023-04-15T07:19:03.336Z,100.00
2023-04-15T07:21:49.593Z,100.00
2023-04-15T07:24:34.590Z,100.00
2023-04-15T07:27:19.571Z,100.00
2023-04-15T07:30:05.028Z,100.00
2023-04-15T07:32:49.976Z,100.00
2023-04-15T07:35:35.337Z,100.00
2023-04-15T07:38:20.305Z,100.00
2023-04-15T07:41:05.897Z,100.00
2023-04-15T07:43:50.960Z,100.00
2023-04-15T07:46:36.047Z,100.00
2023-04-15T07:49:21.162Z,100.00
2023-04-15T07:52:06.078Z,100.00
2023-04-15T07:54:51.489Z,100.00
2023-04-15T07:57:36.886Z,100.00
2023-04-15T08:00:22.591Z,100.00
2023-04-15T08:03:07.908Z,100.00
2023-04-15T08:05:53.173Z,100.00
2023-04-15T08:08:38.299Z,100.00
2023-04-15T08:11:23.613Z,100.00
2023-04-15T08:14:09.017Z,100.00
2023-04-15T08:16:54.034Z,100.00
2023-04-15T08:19:40.253Z,100.00
2023-04-15T08:22:25.344Z,100.00
2023-04-15T08:25:10.738Z,100.00
2023-04-15T08:27:56.439Z,100.00
2023-04-15T08:30:41.923Z,100.00
2023-04-15T08:33:27.358Z,100.00
2023-04-15T08:36:12.736Z,100.00
2023-04-15T08:38:58.302Z,100.00
2023-04-15T08:42:03.194Z,100.00
2023-04-15T08:44:49.428Z,100.00
2023-04-15T08:47:36.186Z,100.00
2023-04-15T08:50:22.753Z,100.00
2023-04-15T08:53:08.594Z,100.00
2023-04-15T08:55:57.195Z,100.00
2023-04-15T08:58:44.624Z,100.00
2023-04-15T09:01:29.801Z,100.00
2023-04-15T09:04:15.039Z,100.00
2023-04-15T09:07:00.477Z,100.00
2023-04-15T09:09:45.934Z,100.00
2023-04-15T09:12:33.813Z,100.00
2023-04-15T09:15:19.436Z,100.00
2023-04-15T09:18:05.868Z,100.00
2023-04-15T09:20:53.386Z,100.00
2023-04-15T09:23:40.077Z,100.00
2023-04-15T09:26:36.562Z,100.00
2023-04-15T09:29:25.199Z,100.00
2023-04-15T09:32:11.457Z,100.00
2023-04-15T09:34:56.640Z,100.00
2023-04-15T09:37:41.442Z,100.00
2023-04-15T09:40:34.927Z,100.00
2023-04-15T09:43:20.130Z,100.00
2023-04-15T09:46:05.682Z,100.00
2023-04-15T09:49:07.996Z,100.00
2023-04-15T09:52:05.146Z,100.00
2023-04-15T09:54:54.239Z,100.00
2023-04-15T09:57:40.099Z,100.00
2023-04-15T10:00:25.503Z,100.00
2023-04-15T10:03:11.469Z,100.00
2023-04-15T10:05:58.908Z,100.00
2023-04-15T10:08:44.333Z,100.00
2023-04-15T10:11:31.630Z,100.00
2023-04-15T10:14:18.746Z,100.00
2023-04-15T10:17:05.549Z,100.00
2023-04-15T10:19:54.228Z,100.00
2023-04-15T10:22:40.765Z,100.00
2023-04-15T10:25:27.035Z,100.00
2023-04-15T10:28:12.561Z,100.00
2023-04-15T10:30:58.912Z,100.00
2023-04-15T10:33:45.068Z,100.00
2023-04-15T10:36:30.389Z,100.00
2023-04-15T10:39:34.536Z,100.00
2023-04-15T10:42:19.969Z,100.00
2023-04-15T10:45:16.577Z,100.00
2023-04-15T10:48:04.012Z,100.00
2023-04-15T10:51:01.213Z,100.00
2023-04-15T10:53:46.427Z,100.00
2023-04-15T10:56:32.138Z,100.00
2023-04-15T10:59:17.028Z,100.00
2023-04-15T11:02:03.581Z,100.00
2023-04-15T11:04:55.961Z,100.00
2023-04-15T11:07:44.050Z,100.00
2023-04-15T11:10:29.566Z,100.00
2023-04-15T11:13:20.232Z,100.00
2023-04-15T11:16:05.571Z,100.00
2023-04-15T11:18:55.250Z,100.00
2023-04-15T11:21:40.575Z,100.00
2023-04-15T11:24:25.593Z,100.00
2023-04-15T11:27:10.675Z,100.00
2023-04-15T11:29:55.477Z,100.00
2023-04-15T11:32:43.922Z,100.00
2023-04-15T11:35:29.967Z,100.00
2023-04-15T11:38:15.961Z,100.00
2023-04-15T11:41:00.951Z,100.00
2023-04-15T11:43:46.335Z,100.00
2023-04-15T11:46:31.913Z,100.00
2023-04-15T11:49:28.850Z,100.00
2023-04-15T11:52:14.014Z,100.00
2023-04-15T11:55:03.984Z,100.00
2023-04-15T11:57:50.855Z,100.00
2023-04-15T12:00:36.986Z,100.00
2023-04-15T12:03:37.760Z,100.00
2023-04-15T12:06:32.615Z,100.00
2023-04-15T12:09:17.983Z,100.00
2023-04-15T12:12:03.257Z,100.00
2023-04-15T12:14:51.970Z,100.00
2023-04-15T12:17:51.764Z,100.00
2023-04-15T12:20:44.472Z,100.00
2023-04-15T12:23:29.631Z,100.00
2023-04-15T12:26:14.574Z,100.00
2023-04-15T12:29:06.294Z,100.00
2023-04-15T12:31:59.668Z,100.00
2023-04-15T12:34:50.754Z,100.00
2023-04-15T12:37:35.852Z,100.00
2023-04-15T12:40:21.268Z,100.00
2023-04-15T12:43:06.588Z,100.00
2023-04-15T12:45:51.927Z,100.00
2023-04-15T12:48:37.270Z,100.00
2023-04-15T12:51:22.595Z,100.00
2023-04-15T12:54:08.020Z,100.00
2023-04-15T12:56:53.618Z,100.00
2023-04-15T12:59:38.784Z,100.00
2023-04-15T13:02:24.231Z,100.00
2023-04-15T13:05:09.816Z,100.00
2023-04-15T13:07:55.118Z,100.00
2023-04-15T13:10:40.515Z,100.00
2023-04-15T13:13:26.435Z,100.00
2023-04-15T13:16:11.847Z,100.00
2023-04-15T13:18:57.676Z,100.00
2023-04-15T13:21:43.158Z,100.00
2023-04-15T13:24:28.502Z,100.00
2023-04-15T13:27:13.416Z,100.00
2023-04-15T13:29:58.272Z,100.00
2023-04-15T13:32:43.729Z,100.00
2023-04-15T13:35:29.138Z,100.00
2023-04-15T13:38:13.906Z,100.00
2023-04-15T13:40:59.323Z,100.00
2023-04-15T13:43:44.672Z,100.00
2023-04-15T13:46:30.204Z,100.00
2023-04-15T13:49:15.532Z,100.00
2023-04-15T13:52:00.872Z,100.00
2023-04-15T13:54:45.795Z,100.00
2023-04-15T13:57:31.386Z,100.00
2023-04-15T14:00:16.959Z,100.00
2023-04-15T14:03:02.146Z,100.00
2023-04-15T14:05:47.519Z,100.00
2023-04-15T14:08:32.467Z,100.00
2023-04-15T14:11:17.425Z,100.00
2023-04-15T14:14:02.663Z,100.00
2023-04-15T14:16:48.166Z,100.00
2023-04-15T14:19:35.077Z,100.00
2023-04-15T14:22:20.493Z,100.00
2023-04-15T14:25:06.474Z,100.00
2023-04-15T14:27:51.485Z,100.00
2023-04-15T14:30:36.900Z,100.00
2023-04-15T14:33:22.319Z,100.00
2023-04-15T14:36:10.372Z,100.00
2023-04-15T14:38:55.521Z,100.00
2023-04-15T14:41:40.459Z,100.00
2023-04-15T14:44:25.890Z,100.00
2023-04-15T14:47:11.285Z,100.00
2023-04-15T14:49:56.438Z,100.00
2023-04-15T14:52:41.894Z,100.00
2023-04-15T14:55:27.347Z,100.00
2023-04-15T14:58:12.691Z,100.00
2023-04-15T15:00:58.471Z,100.00
2023-04-15T15:03:43.688Z,100.00
2023-04-15T15:06:28.916Z,100.00
2023-04-15T15:09:14.189Z,100.00
2023-04-15T15:11:59.679Z,100.00
2023-04-15T15:14:45.191Z,100.00
2023-04-15T15:17:30.721Z,100.00
2023-04-15T15:20:17.005Z,100.00
2023-04-15T15:23:02.233Z,100.00
2023-04-15T15:25:47.632Z,100.00
2023-04-15T15:28:34.246Z,100.00
2023-04-15T15:31:19.721Z,100.00
2023-04-15T15:34:05.145Z,100.00
2023-04-15T15:36:50.581Z,100.00
2023-04-15T15:39:35.970Z,100.00
2023-04-15T15:42:22.458Z,100.00
2023-04-15T15:45:08.037Z,100.00
2023-04-15T15:47:53.285Z,100.00
2023-04-15T15:50:38.395Z,100.00
2023-04-15T15:53:23.736Z,100.00
2023-04-15T15:56:08.745Z,100.00
2023-04-15T15:58:53.564Z,100.00
2023-04-15T16:01:38.596Z,100.00
2023-04-15T16:04:23.901Z,100.00
2023-04-15T16:07:10.605Z,100.00
2023-04-15T16:09:55.853Z,100.00
2023-04-15T16:12:41.185Z,100.00
2023-04-15T16:15:26.170Z,100.00
2023-04-15T16:18:11.524Z,100.00
2023-04-15T16:20:56.456Z,100.00
2023-04-15T16:23:41.904Z,100.00
2023-04-15T16:26:27.302Z,100.00
2023-04-15T16:29:12.829Z,100.00
2023-04-15T16:31:58.220Z,100.00
2023-04-15T16:34:43.715Z,100.00
2023-04-15T16:37:29.164Z,100.00
2023-04-15T16:40:14.782Z,100.00
2023-04-15T16:43:00.391Z,100.00
2023-04-15T16:45:45.852Z,100.00
2023-04-15T16:48:31.245Z,100.00
2023-04-15T16:51:16.576Z,100.00
2023-04-15T16:54:02.007Z,100.00
2023-04-15T16:56:47.499Z,100.00
2023-04-15T16:59:32.970Z,100.00
2023-04-15T17:02:18.166Z,100.00
2023-04-15T17:05:03.816Z,100.00
2023-04-15T17:07:48.998Z,100.00
2023-04-15T17:10:34.365Z,100.00
2023-04-15T17:13:19.625Z,100.00
2023-04-15T17:16:04.993Z,100.00
2023-04-15T17:18:50.260Z,100.00
2023-04-15T17:21:35.808Z,100.00
2023-04-15T17:24:21.018Z,100.00
2023-04-15T17:27:06.466Z,100.00
2023-04-15T17:29:51.920Z,100.00
2023-04-15T17:32:38.606Z,100.00
2023-04-15T17:35:23.949Z,100.00
2023-04-15T17:38:09.436Z,100.00
2023-04-15T17:40:55.049Z,100.00
2023-04-15T17:43:40.264Z,100.00
2023-04-15T17:46:26.531Z,100.00
2023-04-15T17:49:11.931Z,100.00
2023-04-15T17:51:57.566Z,100.00
2023-04-15T17:54:42.871Z,100.00
2023-04-15T17:57:28.367Z,100.00
2023-04-15T18:00:14.058Z,100.00
2023-04-15T18:02:59.236Z,100.00
2023-04-15T18:05:44.681Z,100.00
2023-04-15T18:08:31.138Z,100.00
2023-04-15T18:11:16.546Z,100.00
2023-04-15T18:14:03.341Z,100.00
2023-04-15T18:16:49.075Z,100.00
2023-04-15T18:19:34.295Z,100.00
2023-04-15T18:22:19.440Z,100.00
2023-04-15T18:25:05.725Z,100.00
2023-04-15T18:27:50.938Z,100.00
2023-04-15T18:30:36.395Z,100.00
2023-04-15T18:33:21.677Z,100.00
2023-04-15T18:36:07.128Z,100.00
2023-04-15T18:38:52.501Z,100.00
2023-04-15T18:41:37.872Z,100.00
2023-04-15T18:44:23.464Z,100.00
2023-04-15T18:47:08.288Z,100.00
2023-04-15T18:49:53.903Z,100.00
2023-04-15T18:52:39.171Z,100.00
2023-04-15T18:55:24.314Z,100.00
2023-04-15T18:58:09.611Z,100.00
2023-04-15T19:00:54.859Z,100.00
2023-04-15T19:03:40.300Z,100.00
2023-04-15T19:06:25.653Z,100.00
2023-04-15T19:09:11.131Z,100.00
2023-04-15T19:11:56.669Z,100.00
2023-04-15T19:14:41.714Z,100.00
2023-04-15T19:17:27.319Z,100.00
2023-04-15T19:20:12.649Z,100.00
2023-04-15T19:22:57.936Z,100.00
2023-04-15T19:25:43.261Z,100.00
2023-04-15T19:28:30.018Z,100.00
2023-04-15T19:31:15.633Z,100.00
2023-04-15T19:34:00.928Z,100.00
2023-04-15T19:36:46.551Z,100.00
2023-04-15T19:39:31.868Z,100.00
2023-04-15T19:42:17.306Z,100.00
2023-04-15T19:45:03.153Z,100.00
2023-04-15T19:47:48.409Z,100.00
2023-04-15T19:50:33.823Z,100.00
2023-04-15T19:53:19.265Z,100.00
2023-04-15T19:56:04.628Z,100.00
2023-04-15T19:58:49.939Z,100.00
2023-04-15T20:01:35.321Z,100.00
2023-04-15T20:04:20.805Z,100.00
2023-04-15T20:07:05.890Z,100.00
2023-04-15T20:09:51.214Z,100.00
2023-04-15T20:12:50.695Z,100.00
2023-04-15T20:15:37.703Z,100.00
2023-04-15T20:18:23.022Z,100.00
2023-04-15T20:21:08.375Z,100.00
2023-04-15T20:23:53.707Z,100.00
2023-04-15T20:26:38.976Z,100.00
2023-04-15T20:29:24.492Z,100.00
2023-04-15T20:32:09.848Z,100.00
2023-04-15T20:34:55.177Z,100.00
2023-04-15T20:37:43.464Z,100.00
2023-04-15T20:40:28.559Z,100.00
2023-04-15T20:43:13.652Z,100.00
2023-04-15T20:46:04.401Z,100.00
2023-04-15T20:49:00.590Z,100.00
2023-04-15T20:51:46.025Z,100.00
2023-04-15T20:54:31.374Z,100.00
2023-04-15T20:57:16.842Z,100.00
2023-04-15T21:00:02.056Z,100.00
2023-04-15T21:02:47.355Z,100.00
2023-04-15T21:05:32.764Z,100.00
2023-04-15T21:08:18.135Z,100.00
2023-04-15T21:11:03.548Z,100.00
2023-04-15T21:13:49.139Z,100.00
2023-04-15T21:16:34.685Z,100.00
2023-04-15T21:19:20.053Z,100.00
2023-04-15T21:22:05.449Z,100.00
2023-04-15T21:24:50.525Z,100.00
2023-04-15T21:27:35.986Z,100.00
2023-04-15T21:30:21.506Z,100.00
2023-04-15T21:33:06.470Z,100.00
2023-04-15T21:35:55.400Z,100.00
2023-04-15T21:38:40.337Z,100.00
2023-04-15T21:41:26.162Z,100.00
2023-04-15T21:44:13.907Z,100.00
2023-04-15T21:46:59.765Z,100.00
2023-04-15T21:49:45.328Z,100.00
2023-04-15T21:52:30.647Z,100.00
2023-04-15T21:55:16.158Z,100.00
2023-04-15T21:58:01.520Z,100.00
2023-04-15T22:00:47.304Z,100.00
2023-04-15T22:03:34.409Z,100.00
2023-04-15T22:06:20.041Z,100.00
2023-04-15T22:09:05.416Z,100.00
2023-04-15T22:11:50.847Z,100.00
2023-04-15T22:14:36.299Z,100.00
2023-04-15T22:17:21.836Z,100.00
2023-04-15T22:20:07.929Z,100.00
2023-04-15T22:22:54.226Z,100.00
2023-04-15T22:25:40.530Z,100.00
2023-04-15T22:28:25.621Z,100.00
2023-04-15T22:31:10.704Z,100.00
2023-04-15T22:33:55.921Z,100.00
2023-04-15T22:36:41.453Z,100.00
2023-04-15T22:39:26.617Z,100.00
2023-04-15T22:42:12.180Z,100.00
2023-04-15T22:44:57.696Z,100.00
2023-04-15T22:47:43.164Z,100.00
2023-04-15T22:50:28.451Z,100.00
2023-04-15T22:53:15.461Z,100.00
2023-04-15T22:56:00.648Z,100.00
2023-04-15T22:58:46.177Z,100.00
2023-04-15T23:01:31.262Z,100.00
2023-04-15T23:04:26.390Z,100.00
2023-04-15T23:07:12.753Z,100.00
2023-04-15T23:09:58.175Z,100.00
2023-04-15T23:12:43.385Z,100.00
2023-04-15T23:15:28.273Z,100.00
2023-04-15T23:18:13.654Z,100.00
2023-04-15T23:20:58.947Z,100.00
2023-04-15T23:23:44.273Z,100.00
2023-04-15T23:26:29.591Z,100.00
2023-04-15T23:29:15.068Z,100.00
2023-04-15T23:32:00.603Z,100.00
2023-04-15T23:34:45.983Z,100.00
2023-04-15T23:37:31.401Z,100.00
2023-04-15T23:40:16.889Z,100.00
2023-04-15T23:43:01.730Z,100.00
2023-04-15T23:45:47.156Z,100.00
2023-04-15T23:48:32.475Z,100.00
2023-04-15T23:51:17.865Z,100.00
2023-04-15T23:54:02.869Z,100.00
2023-04-15T23:56:48.042Z,100.00
2023-04-15T23:59:33.298Z,100.00
